Time;durP1;ratioP1;P1;durP2;ratioP2;P2;SDS_P1;SDS_P2;PMS_P1;PMS_P2;Temp;Humidity;BMP_temperature;BMP_pressure;BME280_temperature;BME280_humidity;BME280_pressure;Samples;Min_cycle;Max_cycle;Signal;HPM_P1;HPM_P2
2023/05/12 00:01:24;;;;;;;10.33;9.33;;;;;;;9.39;100.00;96099.88;7410747;19;20747;-77
2023/05/12 00:03:52;;;;;;;11.10;10.00;;;;;;;9.04;100.00;96062.44;7409006;19;20353;-78
2023/05/12 00:06:20;;;;;;;12.87;11.57;;;;;;;9.10;100.00;96090.19;7411742;19;20365;-78
2023/05/12 00:08:47;;;;;;;11.57;9.87;;;;;;;8.77;100.00;96052.41;7412175;19;20373;-79
2023/05/12 00:11:14;;;;;;;12.37;10.87;;;;;;;9.19;100.00;96096.16;7410009;19;20401;-78
2023/05/12 00:13:41;;;;;;;12.33;11.23;;;;;;;9.13;100.00;96078.97;7411251;19;20401;-79
2023/05/12 00:16:07;;;;;;;11.70;10.60;;;;;;;9.33;100.00;96097.75;7411163;19;20364;-78
2023/05/12 00:18:34;;;;;;;11.60;10.30;;;;;;;9.16;100.00;96064.38;7412260;19;20356;-78
2023/05/12 00:21:01;;;;;;;11.00;9.63;;;;;;;9.24;100.00;96068.81;7407627;19;20401;-78
2023/05/12 00:23:28;;;;;;;11.77;10.70;;;;;;;9.16;100.00;96073.06;7412180;19;20397;-78
2023/05/12 00:25:55;;;;;;;11.43;10.30;;;;;;;8.95;100.00;96045.16;7410353;19;20389;-78
2023/05/12 00:28:22;;;;;;;10.93;9.10;;;;;;;9.21;100.00;96074.72;7412466;19;20372;-78
2023/05/12 00:30:49;;;;;;;9.40;8.60;;;;;;;9.25;100.00;96109.16;7410879;19;20944;-79
2023/05/12 00:33:16;;;;;;;9.50;8.60;;;;;;;9.06;100.00;96067.41;7411197;19;20368;-78
2023/05/12 00:35:46;;;;;;;12.80;8.67;;;;;;;9.04;100.00;96090.69;7409411;19;20361;-80
2023/05/12 00:38:13;;;;;;;11.10;10.10;;;;;;;8.76;100.00;96038.47;7409133;19;20407;-80
2023/05/12 00:40:40;;;;;;;9.00;8.30;;;;;;;9.08;100.00;96091.56;7407422;19;20408;-80
2023/05/12 00:43:08;;;;;;;10.43;9.43;;;;;;;8.99;100.00;96073.19;7409763;19;20459;-80
2023/05/12 00:45:35;;;;;;;13.00;8.80;;;;;;;9.12;100.00;96092.50;7408389;19;20460;-80
2023/05/12 00:48:04;;;;;;;10.70;9.60;;;;;;;9.08;100.00;96081.84;7410149;19;20356;-80
2023/05/12 00:50:31;;;;;;;9.40;8.60;;;;;;;9.04;100.00;96088.03;7406025;19;20428;-80
2023/05/12 00:53:00;;;;;;;10.50;9.63;;;;;;;9.19;100.00;96109.34;7407872;19;20364;-80
2023/05/12 00:55:28;;;;;;;10.30;9.23;;;;;;;9.27;100.00;96110.38;7409176;19;20368;-80
2023/05/12 00:57:56;;;;;;;9.97;8.93;;;;;;;9.16;100.00;96101.31;7409481;19;20431;-80
2023/05/12 01:00:23;;;;;;;11.57;10.30;;;;;;;8.74;100.00;96048.56;7406452;19;20432;-80
2023/05/12 01:02:50;;;;;;;11.30;10.30;;;;;;;8.98;100.00;96086.72;7409743;19;20504;-80
2023/05/12 01:05:17;;;;;;;12.40;11.20;;;;;;;8.73;100.00;96060.19;7400000;19;20348;-80
2023/05/12 01:07:45;;;;;;;12.00;9.93;;;;;;;8.58;100.00;96048.34;7402594;19;20586;-80
2023/05/12 01:10:19;;;;;;;10.90;9.90;;;;;;;8.85;100.00;96080.59;7398849;19;20997;-80
2023/05/12 01:12:47;;;;;;;12.27;10.53;;;;;;;9.15;100.00;96103.16;7401331;19;20372;-80
2023/05/12 01:15:16;;;;;;;9.50;8.70;;;;;;;8.97;100.00;96061.44;7401142;19;20742;-80
2023/05/12 01:17:51;;;;;;;9.53;8.57;;;;;;;8.80;100.00;96054.41;7399357;19;20387;-80
2023/05/12 01:20:25;;;;;;;11.03;9.90;;;;;;;8.97;100.00;96069.34;7399684;19;20715;-80
2023/05/12 01:22:54;;;;;;;12.37;10.60;;;;;;;9.02;100.00;96083.09;7400365;19;20396;-80
2023/05/12 01:25:23;;;;;;;11.20;10.10;;;;;;;9.03;100.00;96111.00;7402003;19;20387;-81
2023/05/12 01:27:52;;;;;;;10.63;9.73;;;;;;;8.73;100.00;96070.75;7400467;19;20395;-81
2023/05/12 01:30:21;;;;;;;11.40;10.30;;;;;;;8.96;100.00;96073.84;7400012;19;20750;-81
2023/05/12 01:32:49;;;;;;;11.40;10.40;;;;;;;8.78;100.00;96054.72;7398869;19;20921;-81
2023/05/12 01:35:18;;;;;;;11.17;10.27;;;;;;;9.09;100.00;96077.31;7401316;19;20361;-81
2023/05/12 01:37:52;;;;;;;10.73;9.20;;;;;;;8.77;100.00;96049.78;7398207;19;20408;-80
2023/05/12 01:40:20;;;;;;;10.70;9.70;;;;;;;8.89;100.00;96060.41;7400219;19;20428;-80
2023/05/12 01:42:47;;;;;;;8.13;7.23;;;;;;;8.91;100.00;96052.16;7399882;19;20976;-80
2023/05/12 01:45:14;;;;;;;8.27;7.57;;;;;;;9.27;100.00;96104.31;7401495;19;20369;-80
2023/05/12 01:47:41;;;;;;;8.87;7.97;;;;;;;9.00;100.00;96084.53;7399968;19;20376;-80
2023/05/12 01:50:09;;;;;;;8.23;7.53;;;;;;;8.89;100.00;96069.06;7400386;19;20445;-80
2023/05/12 01:52:36;;;;;;;9.00;8.30;;;;;;;8.93;100.00;96097.44;7400022;19;20402;-80
2023/05/12 01:55:07;;;;;;;9.57;8.57;;;;;;;8.84;100.00;96093.00;7398222;19;20772;-80
2023/05/12 01:57:42;;;;;;;9.50;8.60;;;;;;;8.77;100.00;96073.50;7400540;19;20440;-80
2023/05/12 02:00:11;;;;;;;9.00;7.73;;;;;;;8.79;100.00;96077.34;7398299;19;20417;-80
2023/05/12 02:02:41;;;;;;;8.83;8.10;;;;;;;8.75;100.00;96073.06;7403003;19;20416;-80
2023/05/12 02:05:11;;;;;;;9.30;8.40;;;;;;;8.92;100.00;96074.78;7400801;19;20384;-80
2023/05/12 02:07:39;;;;;;;8.73;7.93;;;;;;;8.98;100.00;96079.56;7402799;19;20396;-80
2023/05/12 02:10:08;;;;;;;10.17;7.30;;;;;;;9.13;100.00;96091.41;7399657;19;20421;-80
2023/05/12 02:12:35;;;;;;;9.83;8.93;;;;;;;8.97;100.00;96096.47;7402907;19;20401;-81
2023/05/12 02:15:02;;;;;;;10.80;9.70;;;;;;;8.81;100.00;96056.75;7400499;19;20389;-81
2023/05/12 02:17:31;;;;;;;12.20;11.17;;;;;;;8.85;100.00;96080.59;7401117;19;20365;-81
2023/05/12 02:20:04;;;;;;;12.33;11.30;;;;;;;9.09;100.00;96103.69;7398638;19;20427;-80
2023/05/12 02:22:31;;;;;;;11.30;10.30;;;;;;;9.10;100.00;96089.41;7400599;19;20410;-80
2023/05/12 02:24:57;;;;;;;15.37;13.60;;;;;;;9.27;100.00;96110.38;7398664;19;20424;-80
2023/05/12 02:27:25;;;;;;;13.40;12.20;;;;;;;8.82;100.00;96037.19;7396429;19;20467;-80
2023/05/12 02:29:53;;;;;;;14.27;13.07;;;;;;;9.04;100.00;96085.41;7397318;19;20424;-80
2023/05/12 02:32:21;;;;;;;15.50;11.00;;;;;;;8.56;100.00;96021.56;7397146;19;20380;-80
2023/05/12 02:34:49;;;;;;;14.37;12.87;;;;;;;9.00;100.00;96066.84;7399504;19;20933;-80
2023/05/12 02:37:16;;;;;;;11.77;10.87;;;;;;;8.97;100.00;96067.47;7399798;19;20440;-80
2023/05/12 02:39:43;;;;;;;9.93;9.13;;;;;;;8.72;100.00;96066.56;7400478;19;20419;-80
2023/05/12 02:42:10;;;;;;;9.80;8.90;;;;;;;8.75;100.00;96071.19;7400141;19;20694;-80
2023/05/12 02:44:37;;;;;;;9.50;8.70;;;;;;;8.69;100.00;96058.53;7403414;19;20398;-81
2023/05/12 02:47:05;;;;;;;23.00;8.70;;;;;;;8.40;100.00;96022.41;7405108;19;20373;-80
2023/05/12 02:49:32;;;;;;;9.73;8.93;;;;;;;8.55;100.00;96040.31;7418294;19;20401;-80
2023/05/12 02:51:59;;;;;;;10.40;9.50;;;;;;;8.56;100.00;96034.75;7420233;19;20377;-81
2023/05/12 02:54:26;;;;;;;8.70;8.00;;;;;;;8.75;100.00;96062.50;7402122;19;20401;-81
2023/05/12 02:56:55;;;;;;;10.63;9.53;;;;;;;8.67;100.00;96052.78;7397212;19;20397;-81
2023/05/12 02:59:22;;;;;;;11.20;8.97;;;;;;;8.43;100.00;96030.47;7398308;19;20448;-81
2023/05/12 03:01:49;;;;;;;12.40;8.80;;;;;;;8.51;100.00;96021.72;7397979;19;20931;-80
2023/05/12 03:04:16;;;;;;;10.27;9.27;;;;;;;8.18;100.00;95984.72;7397995;19;20376;-81
2023/05/12 03:06:43;;;;;;;10.50;9.60;;;;;;;8.20;100.00;95973.88;7398003;19;20382;-80
2023/05/12 03:09:10;;;;;;;10.13;8.50;;;;;;;8.12;100.00;95975.44;7397122;19;20928;-81
2023/05/12 03:11:37;;;;;;;10.03;9.00;;;;;;;8.33;100.00;96001.84;7396441;19;20397;-80
2023/05/12 03:14:04;;;;;;;12.30;11.07;;;;;;;8.57;100.00;96048.69;7396839;19;20417;-81
2023/05/12 03:16:30;;;;;;;10.80;9.80;;;;;;;8.00;100.00;95960.34;7396340;19;20337;-81
2023/05/12 03:18:57;;;;;;;10.43;9.43;;;;;;;8.61;100.00;96046.16;7398748;19;20432;-80
2023/05/12 03:21:27;;;;;;;10.07;9.03;;;;;;;8.36;100.00;96003.84;7396409;19;20448;-80
2023/05/12 03:23:54;;;;;;;10.90;9.77;;;;;;;8.21;100.00;95988.59;7398992;19;20416;-81
2023/05/12 03:26:21;;;;;;;9.80;8.90;;;;;;;8.29;100.00;96014.88;7395737;19;20421;-81
2023/05/12 03:28:48;;;;;;;9.70;8.47;;;;;;;8.47;100.00;96047.19;7396503;19;20388;-81
2023/05/12 03:31:15;;;;;;;10.57;9.47;;;;;;;8.62;100.00;96053.75;7397691;19;20724;-81
2023/05/12 03:33:42;;;;;;;9.63;8.83;;;;;;;8.73;100.00;96038.34;7397203;19;20388;-81
2023/05/12 03:36:09;;;;;;;8.50;7.80;;;;;;;8.88;100.00;96057.00;7396373;19;20404;-80
2023/05/12 03:38:36;;;;;;;8.83;7.93;;;;;;;8.92;100.00;96065.03;7397570;19;20721;-81
2023/05/12 03:41:04;;;;;;;9.33;8.53;;;;;;;9.02;100.00;96074.41;7394256;19;20843;-81
2023/05/12 03:43:32;;;;;;;8.67;7.90;;;;;;;9.10;100.00;96090.19;7398098;19;20381;-80
2023/05/12 03:45:59;;;;;;;8.67;7.87;;;;;;;8.84;100.00;96061.38;7397117;19;20369;-81
2023/05/12 03:48:26;;;;;;;10.70;9.80;;;;;;;8.69;100.00;96032.94;7398381;19;20933;-81
2023/05/12 03:50:53;;;;;;;9.47;8.57;;;;;;;8.84;100.00;96071.16;7394631;19;20420;-81
2023/05/12 03:53:20;;;;;;;10.53;9.47;;;;;;;8.97;100.00;96070.13;7397653;19;20784;-81
2023/05/12 03:55:47;;;;;;;8.50;7.80;;;;;;;8.93;100.00;96055.25;7399178;19;20389;-81
2023/05/12 03:58:14;;;;;;;8.97;7.67;;;;;;;8.42;100.00;95989.41;7397741;19;20381;-80
2023/05/12 04:00:41;;;;;;;8.97;8.10;;;;;;;9.16;100.00;96090.75;7394741;19;20432;-80
2023/05/12 04:03:09;;;;;;;15.17;8.33;;;;;;;8.84;100.00;96064.00;7395274;19;20376;-81
2023/05/12 04:05:38;;;;;;;9.23;8.43;;;;;;;8.76;100.00;96050.88;7396812;19;20382;-80
2023/05/12 04:08:05;;;;;;;8.37;7.67;;;;;;;8.71;100.00;96051.06;7396716;19;20377;-80
2023/05/12 04:10:32;;;;;;;11.43;7.80;;;;;;;8.72;100.00;96042.84;7394574;19;20440;-80
2023/05/12 04:13:01;;;;;;;10.17;8.27;;;;;;;8.80;100.00;96071.00;7394104;19;20389;-80
2023/05/12 04:15:29;;;;;;;9.23;8.43;;;;;;;8.72;100.00;96068.44;7396018;19;20364;-80
2023/05/12 04:17:56;;;;;;;8.87;8.10;;;;;;;8.52;100.00;96039.06;7393619;19;20900;-80
2023/05/12 04:20:23;;;;;;;11.90;8.30;;;;;;;8.67;100.00;96065.97;7393392;19;20957;-80
2023/05/12 04:22:50;;;;;;;10.33;9.00;;;;;;;8.67;100.00;96077.28;7393602;19;20413;-80
2023/05/12 04:25:17;;;;;;;9.37;8.47;;;;;;;8.50;100.00;96033.38;7395014;19;20389;-80
2023/05/12 04:27:44;;;;;;;8.97;8.13;;;;;;;8.84;100.00;96089.59;7403746;19;20377;-79
2023/05/12 04:30:11;;;;;;;10.43;9.53;;;;;;;8.62;100.00;96069.56;7429094;19;20445;-78
2023/05/12 04:32:40;;;;;;;9.40;8.40;;;;;;;8.61;100.00;96062.75;7428705;19;20372;-80
2023/05/12 04:35:07;;;;;;;9.10;8.20;;;;;;;8.60;100.00;96045.41;7428642;19;20401;-78
2023/05/12 04:37:34;;;;;;;9.90;7.80;;;;;;;8.69;100.00;96067.22;7410238;19;20416;-79
2023/05/12 04:40:02;;;;;;;9.00;8.20;;;;;;;8.66;100.00;96067.06;7402591;19;20404;-79
2023/05/12 04:42:29;;;;;;;9.70;8.80;;;;;;;8.77;100.00;96084.81;7403071;19;20415;-79
2023/05/12 04:44:59;;;;;;;8.30;7.50;;;;;;;8.84;100.00;96100.13;7404203;19;20701;-79
2023/05/12 04:47:26;;;;;;;8.73;7.90;;;;;;;8.95;100.00;96111.84;7402813;19;20381;-79
2023/05/12 04:49:53;;;;;;;8.47;7.77;;;;;;;8.50;100.00;96056.31;7407043;19;20426;-79
2023/05/12 04:52:21;;;;;;;10.63;9.73;;;;;;;8.65;100.00;96073.41;7402899;19;20388;-79
2023/05/12 04:54:50;;;;;;;9.43;8.43;;;;;;;8.86;100.00;96111.91;7401671;19;20980;-79
2023/05/12 04:57:18;;;;;;;9.43;8.33;;;;;;;8.66;100.00;96075.72;7403963;19;20625;-79
2023/05/12 04:59:44;;;;;;;8.27;7.40;;;;;;;8.87;100.00;96116.09;7402858;19;20987;-79
2023/05/12 05:02:12;;;;;;;10.33;8.50;;;;;;;8.85;100.00;96104.31;7402708;19;20400;-79
2023/05/12 05:04:39;;;;;;;8.47;7.67;;;;;;;8.74;100.00;96092.59;7404214;19;20385;-79
2023/05/12 05:07:07;;;;;;;9.50;8.60;;;;;;;8.72;100.00;96084.25;7403172;19;20405;-78
2023/05/12 05:09:34;;;;;;;9.97;9.03;;;;;;;8.86;100.00;96109.25;7402691;19;20841;-78
2023/05/12 05:12:02;;;;;;;10.23;9.27;;;;;;;8.73;100.00;96102.38;7401700;19;20889;-79
2023/05/12 05:14:29;;;;;;;13.27;11.87;;;;;;;8.79;100.00;96102.94;7398465;19;20448;-78
2023/05/12 05:16:56;;;;;;;8.77;8.07;;;;;;;8.73;100.00;96091.81;7401771;19;20393;-78
2023/05/12 05:19:23;;;;;;;8.27;7.47;;;;;;;8.86;100.00;96111.13;7399562;19;20408;-78
2023/05/12 05:22:10;;;;;;;9.17;8.30;;;;;;;8.76;100.00;96088.53;7402020;19;20897;-78
2023/05/12 05:24:37;;;;;;;8.53;7.83;;;;;;;8.84;100.00;96100.13;7400709;19;20397;-78
2023/05/12 05:27:05;;;;;;;9.90;6.60;;;;;;;8.77;100.00;96097.22;7401969;19;20381;-78
2023/05/12 05:29:31;;;;;;;7.37;6.67;;;;;;;8.80;100.00;96086.81;7399583;19;20432;-78
2023/05/12 05:31:58;;;;;;;8.60;7.80;;;;;;;8.99;100.00;96125.94;7401821;19;20389;-78
2023/05/12 05:34:25;;;;;;;6.63;5.97;;;;;;;9.03;100.00;96124.19;7399338;19;20377;-78
2023/05/12 05:36:53;;;;;;;7.70;5.83;;;;;;;8.74;100.00;96093.38;7402013;19;20381;-78
2023/05/12 05:39:21;;;;;;;7.90;7.20;;;;;;;9.07;100.00;96145.41;7399962;19;20378;-78
2023/05/12 05:41:48;;;;;;;8.23;7.40;;;;;;;8.84;100.00;96108.81;7402841;19;20389;-78
2023/05/12 05:44:15;;;;;;;8.17;7.40;;;;;;;8.99;100.00;96125.94;7398833;19;20364;-78
2023/05/12 05:46:42;;;;;;;8.03;7.27;;;;;;;9.12;100.00;96139.97;7400507;19;20381;-78
2023/05/12 05:49:09;;;;;;;7.97;7.00;;;;;;;9.08;100.00;96131.13;7397896;19;20970;-78
2023/05/12 05:51:36;;;;;;;8.80;7.40;;;;;;;8.96;100.00;96113.41;7398038;19;20933;-76
2023/05/12 05:54:03;;;;;;;7.90;7.30;;;;;;;8.91;100.00;96112.81;7398142;19;20377;-76
2023/05/12 05:56:31;;;;;;;8.07;6.17;;;;;;;9.05;100.00;96137.06;7399304;19;20459;-76
2023/05/12 05:59:01;;;;;;;8.37;7.43;;;;;;;9.01;100.00;96134.28;7397361;19;20544;-76
2023/05/12 06:01:29;;;;;;;6.93;6.30;;;;;;;8.82;100.00;96108.38;7399431;19;20396;-76
2023/05/12 06:03:56;;;;;;;9.40;6.47;;;;;;;9.00;100.00;96145.16;7397950;19;20823;-76
2023/05/12 06:06:23;;;;;;;10.00;7.57;;;;;;;8.92;100.00;96122.25;7399534;19;20427;-76
2023/05/12 06:08:50;;;;;;;8.87;8.07;;;;;;;9.07;100.00;96138.28;7397907;19;20401;-76
2023/05/12 06:11:17;;;;;;;9.33;7.50;;;;;;;9.09;100.00;96135.34;7398204;19;20405;-76
2023/05/12 06:13:44;;;;;;;8.90;8.10;;;;;;;8.97;100.00;96132.63;7398465;19;20401;-77
2023/05/12 06:16:11;;;;;;;10.40;9.20;;;;;;;9.07;100.00;96138.28;7396775;19;20412;-77
2023/05/12 06:18:38;;;;;;;8.17;7.30;;;;;;;8.95;100.00;96134.78;7398081;19;20396;-76
2023/05/12 06:21:05;;;;;;;8.03;7.30;;;;;;;8.91;100.00;96120.72;7396359;19;20405;-77
2023/05/12 06:23:32;;;;;;;9.37;8.50;;;;;;;9.07;100.00;96145.41;7398303;19;20364;-77
2023/05/12 06:25:59;;;;;;;8.70;7.80;;;;;;;9.20;100.00;96139.13;7396656;19;20348;-77
2023/05/12 06:28:26;;;;;;;9.90;7.93;;;;;;;9.07;100.00;96126.97;7398124;19;20383;-77
2023/05/12 06:30:53;;;;;;;8.53;7.43;;;;;;;9.32;100.00;96168.22;7394408;19;20425;-77
2023/05/12 06:33:20;;;;;;;8.27;6.90;;;;;;;9.31;100.00;96158.75;7398207;19;20380;-77
2023/05/12 06:35:47;;;;;;;8.10;7.33;;;;;;;9.38;100.00;96164.31;7394501;19;20896;-77
2023/05/12 06:38:14;;;;;;;8.20;7.40;;;;;;;9.54;100.00;96164.50;7398691;19;20381;-78
2023/05/12 06:40:43;;;;;;;8.33;7.60;;;;;;;9.47;100.00;96151.78;7395136;19;20436;-77
2023/05/12 06:43:10;;;;;;;8.40;7.63;;;;;;;9.68;100.00;96166.84;7397723;19;20897;-77
2023/05/12 06:45:37;;;;;;;9.83;7.27;;;;;;;9.60;100.00;96157.91;7396161;19;20774;-77
2023/05/12 06:48:08;;;;;;;8.53;7.77;;;;;;;9.62;100.00;96162.88;7397712;19;20932;-77
2023/05/12 06:50:35;;;;;;;7.90;6.30;;;;;;;9.51;100.00;96117.63;7395110;19;20432;-77
2023/05/12 06:53:02;;;;;;;9.00;7.13;;;;;;;9.74;100.00;96161.03;7395143;19;20901;-77
2023/05/12 06:55:29;;;;;;;8.30;7.50;;;;;;;9.80;100.00;96153.72;7395284;19;20412;-77
2023/05/12 06:57:56;;;;;;;7.70;7.00;;;;;;;9.77;100.00;96149.09;7398152;19;20756;-77
2023/05/12 07:00:24;;;;;;;11.77;9.57;;;;;;;9.91;100.00;96151.44;7395163;19;20836;-78
2023/05/12 07:02:51;;;;;;;9.23;8.30;;;;;;;10.09;100.00;96166.00;7395780;19;20460;-77
2023/05/12 07:05:18;;;;;;;9.83;8.97;;;;;;;10.28;100.00;96176.09;7398408;19;20356;-78
2023/05/12 07:07:45;;;;;;;9.10;8.30;;;;;;;10.16;100.00;96154.91;7400471;19;20361;-78
2023/05/12 07:10:12;;;;;;;8.27;7.47;;;;;;;10.34;100.00;96191.41;7395682;19;20464;-78
2023/05/12 07:12:39;;;;;;;8.70;7.90;;;;;;;10.47;100.00;96184.28;7398944;19;20380;-78
2023/05/12 07:15:07;;;;;;;10.10;8.43;;;;;;;10.19;100.00;96162.94;7395975;19;20424;-78
2023/05/12 07:17:34;;;;;;;8.73;8.03;;;;;;;10.24;100.00;96164.63;7398875;19;20384;-78
2023/05/12 07:20:03;;;;;;;10.00;7.63;;;;;;;10.31;100.00;96162.25;7396409;19;20980;-78
2023/05/12 07:22:31;;;;;;;7.50;6.80;;;;;;;10.32;100.00;96175.13;7400574;19;20378;-78
2023/05/12 07:24:58;;;;;;;7.90;7.30;;;;;;;10.52;100.00;96205.22;7398349;19;20369;-78
2023/05/12 07:27:25;;;;;;;8.47;7.63;;;;;;;10.43;100.00;96174.69;7401674;19;20349;-78
2023/05/12 07:29:53;;;;;;;8.23;7.53;;;;;;;10.68;100.00;96199.28;7396810;19;20420;-78
2023/05/12 07:32:20;;;;;;;7.40;6.80;;;;;;;10.56;100.00;96149.81;7399886;19;20388;-78
2023/05/12 07:34:47;;;;;;;7.13;6.53;;;;;;;10.84;100.00;96179.03;7398137;19;20397;-78
2023/05/12 07:37:14;;;;;;;9.40;8.57;;;;;;;10.93;100.00;96188.38;7396485;19;20432;-78
2023/05/12 07:39:40;;;;;;;8.37;7.57;;;;;;;10.63;100.00;96157.97;7397157;19;20386;-79
2023/05/12 07:42:08;;;;;;;8.43;7.60;;;;;;;10.82;100.00;96197.09;7398669;19;20345;-78
2023/05/12 07:44:35;;;;;;;7.87;7.17;;;;;;;10.93;100.00;96204.25;7398364;19;20377;-78
2023/05/12 07:47:02;;;;;;;7.93;7.20;;;;;;;11.02;100.00;96214.72;7396244;19;20348;-78
2023/05/12 07:49:29;;;;;;;7.90;7.10;;;;;;;10.74;100.00;96179.47;7397909;19;20417;-78
2023/05/12 07:51:56;;;;;;;9.30;8.23;;;;;;;10.93;100.00;96206.13;7398232;19;20377;-79
2023/05/12 07:54:22;;;;;;;7.20;6.60;;;;;;;10.93;100.00;96208.75;7398693;19;20340;-79
2023/05/12 07:56:50;;;;;;;11.00;8.00;;;;;;;10.88;100.00;96172.72;7396166;19;20393;-78
2023/05/12 07:59:17;;;;;;;10.80;7.03;;;;;;;11.23;100.00;96193.44;7398167;19;20428;-78
2023/05/12 08:01:44;;;;;;;7.63;6.87;;;;;;;11.33;100.00;96211.50;7396457;19;20436;-78
2023/05/12 08:04:11;;;;;;;10.63;6.90;;;;;;;11.52;100.00;96232.88;7399937;19;20348;-78
2023/05/12 08:06:38;;;;;;;7.47;6.80;;;;;;;11.34;100.00;96220.97;7398256;19;20405;-79
2023/05/12 08:09:05;;;;;;;6.73;6.13;;;;;;;11.17;100.00;96221.22;7397979;19;20746;-79
2023/05/12 08:11:32;;;;;;;8.23;6.30;;;;;;;10.86;100.00;96168.88;7396121;19;20474;-78
2023/05/12 08:13:59;;;;;;;6.67;6.07;;;;;;;11.57;100.00;96237.16;7402051;19;20405;-78
2023/05/12 08:16:26;;;;;;;6.30;5.80;;;;;;;11.58;100.00;96238.69;7403456;19;20349;-79
2023/05/12 08:18:53;;;;;;;7.20;6.50;;;;;;;11.48;100.00;96208.16;7404974;19;20336;-79
2023/05/12 08:21:21;;;;;;;6.33;5.83;;;;;;;12.02;100.00;96247.56;7406059;19;20345;-79
2023/05/12 08:23:47;;;;;;;6.00;5.50;;;;;;;11.77;100.00;96225.66;7405050;19;20417;-78
2023/05/12 08:26:14;;;;;;;75.83;44.87;;;;;;;11.57;100.00;96215.97;7404580;19;20360;-78
2023/05/12 08:28:41;;;;;;;6.10;5.50;;;;;;;11.46;100.00;96212.25;7405546;19;20351;-78
2023/05/12 08:31:08;;;;;;;76.80;51.83;;;;;;;11.53;100.00;96238.94;7403300;19;20353;-78
2023/05/12 08:33:35;;;;;;;26.63;24.00;;;;;;;11.61;100.00;96222.13;7406450;19;20393;-78
2023/05/12 08:36:02;;;;;;;214.70;130.03;;;;;;;11.67;100.00;96218.16;7401634;19;20373;-78
2023/05/12 08:38:31;;;;;;;112.00;66.77;;;;;;;12.12;100.00;96251.59;7404089;19;20404;-78
2023/05/12 08:41:14;;;;;;;28.77;25.77;;;;;;;12.38;100.00;96254.56;7400364;19;20412;-78
2023/05/12 08:43:49;;;;;;;8.13;7.53;;;;;;;12.10;100.00;96272.38;7401672;19;20374;-78
2023/05/12 08:46:16;;;;;;;5.00;4.60;;;;;;;12.11;100.00;96272.03;7403133;19;20360;-78
2023/05/12 08:48:49;;;;;;;5.23;4.73;;;;;;;12.06;100.00;96266.19;7402932;19;20371;-78
2023/05/12 08:51:18;;;;;;;4.47;4.07;;;;;;;12.16;100.00;96263.09;7404553;19;20361;-78
2023/05/12 08:53:47;;;;;;;5.43;4.93;;;;;;;12.19;100.00;96246.50;7402092;19;20377;-78
2023/05/12 08:56:18;;;;;;;5.03;4.40;;;;;;;12.39;100.00;96277.31;7400669;19;20433;-78
2023/05/12 08:58:48;;;;;;;6.00;4.37;;;;;;;12.29;100.00;96261.16;7401715;19;20437;-78
2023/05/12 09:01:16;;;;;;;4.10;3.70;;;;;;;12.67;100.00;96276.50;7404935;19;20412;-78
2023/05/12 09:03:44;;;;;;;5.00;4.07;;;;;;;12.48;100.00;96287.03;7401169;19;20425;-77
2023/05/12 09:06:12;;;;;;;4.90;4.50;;;;;;;12.59;100.00;96257.00;7403998;19;20448;-78
2023/05/12 09:08:39;;;;;;;4.60;4.20;;;;;;;12.55;100.00;96240.22;7401119;19;20475;-78
2023/05/12 09:11:11;;;;;;;5.30;4.60;;;;;;;13.03;100.00;96300.19;7402771;19;20447;-78
2023/05/12 09:13:48;;;;;;;3.80;3.50;;;;;;;12.84;100.00;96294.03;7401544;19;20729;-78
2023/05/12 09:16:21;;;;;;;4.43;4.07;;;;;;;12.88;100.00;96277.06;7399205;19;20357;-77
2023/05/12 09:18:53;;;;;;;4.87;4.57;;;;;;;13.12;100.00;96288.63;7400629;19;20402;-78
2023/05/12 09:21:21;;;;;;;4.70;4.03;;;;;;;13.19;100.00;96264.94;7400120;19;20467;-78
2023/05/12 09:23:56;;;;;;;4.40;4.00;;;;;;;13.67;100.00;96282.34;7400876;19;20376;-78
2023/05/12 09:26:26;;;;;;;3.87;3.57;;;;;;;13.15;100.00;96232.97;7398725;19;20349;-77
2023/05/12 09:28:54;;;;;;;3.90;3.60;;;;;;;13.47;100.00;96289.47;7401893;19;20358;-77
2023/05/12 09:31:23;;;;;;;3.67;3.37;;;;;;;13.88;100.00;96287.31;7400061;19;20417;-77
2023/05/12 09:33:51;;;;;;;4.13;3.73;;;;;;;13.25;100.00;96267.00;7403029;19;20448;-77
2023/05/12 09:36:22;;;;;;;4.27;3.87;;;;;;;13.11;100.00;96263.97;7397851;19;20373;-77
2023/05/12 09:39:05;;;;;;;4.07;2.97;;;;;;;13.25;100.00;96298.09;7401102;19;20345;-77
2023/05/12 09:41:37;;;;;;;3.60;3.33;;;;;;;13.26;100.00;96294.31;7399571;19;20885;-77
2023/05/12 09:44:05;;;;;;;4.63;4.23;;;;;;;13.20;100.00;96271.78;7396140;19;20372;-77
2023/05/12 09:46:32;;;;;;;4.40;3.27;;;;;;;13.33;100.00;96310.41;7400131;19;20380;-77
2023/05/12 09:48:59;;;;;;;3.73;3.43;;;;;;;13.09;100.00;96302.56;7398492;19;20438;-77
2023/05/12 09:51:27;;;;;;;4.23;3.93;;;;;;;13.21;100.00;96310.47;7400542;19;20446;-77
2023/05/12 09:53:53;;;;;;;4.17;3.77;;;;;;;13.30;100.00;96295.94;7398277;19;20378;-77
2023/05/12 09:56:21;;;;;;;4.17;3.67;;;;;;;13.06;100.00;96292.66;7399212;19;20377;-77
2023/05/12 09:58:49;;;;;;;3.70;3.40;;;;;;;13.15;100.00;96301.97;7398253;19;20376;-77
2023/05/12 10:01:18;;;;;;;4.07;3.40;;;;;;;13.43;100.00;96303.78;7400066;19;20467;-77
2023/05/12 10:03:57;;;;;;;4.33;3.67;;;;;;;13.79;100.00;96302.72;7398713;19;20389;-77
2023/05/12 10:06:27;;;;;;;3.30;3.00;;;;;;;13.69;100.00;96306.66;7401743;19;20796;-77
2023/05/12 10:09:15;;;;;;;3.63;2.97;;;;;;;13.32;100.00;96298.22;7398218;19;20868;-77
2023/05/12 10:11:42;;;;;;;3.70;3.40;;;;;;;13.45;100.00;96302.34;7397591;19;20372;-77
2023/05/12 10:14:10;;;;;;;3.70;3.40;;;;;;;13.21;100.00;96279.38;7399464;19;20373;-77
2023/05/12 10:16:37;;;;;;;4.03;3.47;;;;;;;13.43;100.00;96285.97;7395644;19;20377;-77
2023/05/12 10:19:05;;;;;;;3.17;2.97;;;;;;;13.47;100.00;96296.66;7398415;19;20429;-77
2023/05/12 10:21:33;;;;;;;3.30;2.97;;;;;;;13.15;100.00;96274.66;7397296;19;20412;-77
2023/05/12 10:24:02;;;;;;;3.20;2.90;;;;;;;13.16;100.00;96263.69;7399057;19;20357;-77
2023/05/12 10:26:31;;;;;;;4.07;3.77;;;;;;;13.25;100.00;96306.03;7398899;19;20349;-77
2023/05/12 10:28:58;;;;;;;4.30;3.30;;;;;;;13.24;100.00;96293.88;7395647;19;20397;-77
2023/05/12 10:31:26;;;;;;;2.63;2.43;;;;;;;13.41;100.00;96271.50;7397686;19;20384;-77
2023/05/12 10:34:00;;;;;;;3.50;3.20;;;;;;;13.67;100.00;96316.09;7400282;19;20345;-77
2023/05/12 10:36:28;;;;;;;3.10;2.90;;;;;;;13.45;100.00;96297.03;7395584;19;20416;-77
2023/05/12 10:39:03;;;;;;;3.50;2.90;;;;;;;13.79;100.00;96262.84;7395546;19;20774;-76
2023/05/12 10:41:32;;;;;;;3.63;3.33;;;;;;;13.78;100.00;96285.22;7397841;19;20380;-76
2023/05/12 10:43:59;;;;;;;3.70;3.40;;;;;;;13.03;100.00;96264.91;7396409;19;20372;-76
2023/05/12 10:46:26;;;;;;;4.73;3.27;;;;;;;13.15;100.00;96306.53;7397653;19;20372;-76
2023/05/12 10:49:05;;;;;;;3.23;3.03;;;;;;;13.38;100.00;96299.53;7395878;19;20393;-76
2023/05/12 10:51:45;;;;;;;2.83;2.63;;;;;;;13.93;100.00;96313.66;7399902;19;20332;-76
2023/05/12 10:54:19;;;;;;;6.40;2.97;;;;;;;14.41;100.00;96311.56;7396564;19;20392;-76
2023/05/12 10:56:46;;;;;;;4.50;3.07;;;;;;;14.37;100.00;96282.22;7393616;19;20364;-77
2023/05/12 10:59:17;;;;;;;3.93;3.03;;;;;;;14.74;100.00;96309.19;7396518;19;20851;-77
2023/05/12 11:01:59;;;;;;;2.60;2.40;;;;;;;14.09;100.00;96314.34;7395765;19;20518;-77
2023/05/12 11:04:41;;;;;;;2.60;2.40;;;;;;;13.94;100.00;96295.81;7397532;19;20373;-76
2023/05/12 11:07:11;;;;;;;2.90;2.70;;;;;;;13.89;100.00;96254.34;7396706;19;20405;-76
2023/05/12 11:09:42;;;;;;;3.40;3.20;;;;;;;13.95;100.00;96311.41;7394024;19;20417;-76
2023/05/12 11:12:26;;;;;;;3.07;2.77;;;;;;;13.29;100.00;96280.34;7396813;19;20383;-76
2023/05/12 11:14:53;;;;;;;3.77;3.47;;;;;;;13.58;100.00;96314.41;7397086;19;20337;-76
2023/05/12 11:17:20;;;;;;;5.60;3.00;;;;;;;13.80;100.00;96313.00;7396786;19;20706;-76
2023/05/12 11:19:48;;;;;;;4.43;3.67;;;;;;;13.96;100.00;96310.28;7394660;19;20431;-76
2023/05/12 11:22:18;;;;;;;4.40;3.20;;;;;;;13.98;100.00;96293.97;7397330;19;20380;-76
2023/05/12 11:24:46;;;;;;;3.53;3.23;;;;;;;13.91;100.00;96302.59;7395581;19;20731;-76
2023/05/12 11:27:16;;;;;;;3.70;3.40;;;;;;;14.06;100.00;96307.09;7396680;19;20372;-76
2023/05/12 11:29:45;;;;;;;3.30;3.10;;;;;;;14.14;100.00;96319.38;7394691;19;20442;-76
2023/05/12 11:32:14;;;;;;;3.60;3.30;;;;;;;14.44;100.00;96322.31;7398455;19;20424;-76